• Join FlightAware (Why Join?)
  • Login
  • US Flag 
05:22PM EDT


 

Airport Tracker/Info


-or-


 

Live Flight TrackerFlight Track Log ✈ SWA2068 ✈ 13-Jul-2013 ✈ KBNA - KBWI

Flight Track Log - Related Links

Times and Time Zones

All times are in EDT time to prevent confusion due to time zone crossing. See the SWA2068 flight status page for this flight to view local times or setup timezone preferences in your user account.

Time Position Orientation Groundspeed Altitude Reporting Facility
EDT Latitude Longitude Course Direction KTS MPH feet Rate Location/Type
07:17AM 36.1333 -86.7000 292° West 169 194 1,200  Level Nashville TRACON
07:17AM 36.1500 -86.7500 292° West 198 228 2,900 2,280 Climbing Nashville TRACON
07:18AM 36.2000 -86.7833 332° Northwest 228 262 5,600 2,520 Climbing Nashville TRACON
07:19AM 36.2000 -86.6833 90° East 283 326 8,000 2,580 Climbing Nashville TRACON
07:21AM 36.2031 -86.5786 88° East 334 384 11,500 2,580 Climbing Memphis Center
07:22AM 36.2036 -86.4578 90° East 352 405 13,900 2,820 Climbing Memphis Center
07:23AM 36.2014 -86.3267 91° East 369 425 17,200 3,000 Climbing Memphis Center
07:24AM 36.2006 -86.1775 90° East 381 438 20,000 2,580 Climbing Memphis Center
07:25AM 36.2128 -86.0431 84° East 392 451 22,400 2,100 Climbing Memphis Center
07:26AM 36.2647 -85.9219 62° Northeast 387 445 24,300 2,040 Climbing Memphis Center
07:27AM 36.3350 -85.7694 60° Northeast 406 467 27,100 1,860 Climbing Indianapolis Center
07:28AM 36.3956 -85.6450 59° Northeast 417 480 28,600 900 Climbing Indianapolis Center
07:29AM 36.4558 -85.5178 59° Northeast 423 487 29,000 180 Climbing Indianapolis Center
07:30AM 36.5169 -85.3894 59° Northeast 429 494 29,000 540 Level Indianapolis Center
07:31AM 36.5769 -85.2614 60° Northeast 427 491 30,200 1,440 Climbing Indianapolis Center
07:32AM 36.6317 -85.1269 63° Northeast 433 498 32,000 1,380 Climbing Indianapolis Center
07:33AM 36.6756 -84.9797 70° East 449 517 33,000 1,380 Climbing Indianapolis Center
07:34AM 36.7211 -84.8331 69° East 452 520 34,900 1,380 Climbing Indianapolis Center
07:35AM 36.7664 -84.6844 69° East 458 527 35,800 960 Climbing Indianapolis Center
07:36AM 36.8117 -84.5333 69° East 464 534 36,900 1,080 Climbing Indianapolis Center
07:37AM 36.8575 -84.3833 69° East 463 533 38,100 900 Climbing Indianapolis Center
07:38AM 36.9019 -84.2358 69° East 456 525 38,800 420 Climbing Indianapolis Center
07:39AM 36.9444 -84.0897 70° East 449 517 39,000 60 Climbing Indianapolis Center
07:40AM 36.9889 -83.9411 69° East 455 524 39,000  Level Indianapolis Center
07:41AM 37.0425 -83.7672 69° East 458 527 39,000  Level Indianapolis Center
07:42AM 37.0861 -83.6169 70° East 459 528 39,000  Level Indianapolis Center
07:43AM 37.1294 -83.4672 70° East 457 526 39,000  Level Indianapolis Center
07:44AM 37.1725 -83.3169 70° East 455 524 39,000  Level Indianapolis Center
07:45AM 37.2161 -83.1678 70° East 452 520 39,000  Level Indianapolis Center
07:46AM 37.2603 -83.0161 70° East 456 525 39,000  Level Indianapolis Center
07:47AM 37.3053 -82.8650 69° East 457 526 39,000  Level Indianapolis Center
07:48AM 37.3494 -82.7133 70° East 458 527 39,000  Level Indianapolis Center
07:49AM 37.3939 -82.5611 70° East 460 529 39,000  Level Indianapolis Center
07:50AM 37.4375 -82.4075 70° East 463 533 39,000  Level Indianapolis Center
07:51AM 37.4814 -82.2558 70° East 460 529 39,000  Level Indianapolis Center
07:52AM 37.5261 -82.1019 70° East 466 536 39,000  Level Indianapolis Center
07:53AM 37.5708 -81.9475 70° East 467 537 39,000  Level Indianapolis Center
07:54AM 37.6139 -81.7900 71° East 475 547 39,000  Level Indianapolis Center
07:56AM 37.6589 -81.6314 70° East 479 551 39,000  Level Indianapolis Center
07:57AM 37.7056 -81.4628 71° East 477 549 39,000  Level Indianapolis Center
07:58AM 37.7475 -81.3100 71° East 475 547 39,000  Level Indianapolis Center
07:59AM 37.7894 -81.1581 71° East 472 543 39,000  Level Indianapolis Center
08:00AM 37.8303 -81.0064 71° East 468 539 39,000  Level Indianapolis Center
08:01AM 37.8811 -80.8214 71° East 464 534 39,000  Level Indianapolis Center
08:02AM 37.9225 -80.6686 71° East 460 529 39,000  Level Indianapolis Center
08:03AM 37.9608 -80.5331 70° East 457 526 39,000  Level Washington Center
08:04AM 38.0047 -80.3778 70° East 457 526 39,000  Level Washington Center
08:05AM 38.0442 -80.2247 72° East 457 526 39,000  Level Washington Center
08:06AM 38.0903 -80.0558 71° East 457 526 39,000  Level Washington Center
08:07AM 38.1333 -79.9028 70° East 457 526 39,000  Level Washington Center
08:08AM 38.1722 -79.7492 72° East 457 526 39,000 -300 Level Washington Center
08:09AM 38.2128 -79.5981 71° East 457 526 38,500 -1,440 Descending Washington Center
08:10AM 38.2511 -79.4467 72° East 452 520 36,200 -2,640 Descending Washington Center
08:11AM 38.2867 -79.3083 72° East 452 520 33,300 -2,640 Descending Washington Center
08:12AM 38.3267 -79.1569 71° East 452 520 31,000 -2,280 Descending Washington Center
08:13AM 38.3622 -79.0103 73° East 452 520 28,800 -1,980 Descending Washington Center
08:14AM 38.4003 -78.8478 73° East 441 507 27,000 -960 Descending Washington Center
08:15AM 38.4353 -78.7008 73° East 431 496 27,000  Level Washington Center
08:16AM 38.4725 -78.5567 72° East 431 496 27,000 -60 Level Washington Center
08:17AM 38.5092 -78.4094 72° East 431 496 26,900 -1,020 Descending Washington Center
08:18AM 38.5439 -78.2647 73° East 431 496 25,000 -2,100 Descending Washington Center
08:19AM 38.5783 -78.1225 73° East 426 490 22,800 -2,220 Descending Washington Center
08:20AM 38.6103 -77.9881 73° East 411 473 20,700 -1,920 Descending Washington Center
08:21AM 38.6400 -77.8508 74° East 399 459 19,000 -900 Descending Washington Center
08:22AM 38.6486 -77.7156 85° East 388 447 19,000  Level Washington Center
08:22AM 38.6500 -77.6167 89° East 379 436 19,000 -780 Level Potomac TRACON
08:23AM 38.6667 -77.4833 81° East 368 423 17,700 -1,680 Descending Potomac TRACON
08:24AM 38.6667 -77.3833 90° East 366 421 16,000 -1,140 Descending Potomac TRACON
08:25AM 38.6833 -77.2500 81° East 354 407 15,600 -1,140 Descending Potomac TRACON
08:26AM 38.6833 -77.1167 90° East 354 407 13,600 -1,920 Descending Potomac TRACON
08:27AM 38.6833 -77.0167 90° East 347 399 12,000 -1,680 Descending Potomac TRACON
08:28AM 38.7000 -76.8833 81° East 328 377 10,300 -1,320 Descending Potomac TRACON
08:29AM 38.7000 -76.7667 90° East 296 341 9,300 -960 Descending Potomac TRACON
08:30AM 38.7333 -76.6833 63° Northeast 298 343 8,500 -1,200 Descending Potomac TRACON
08:31AM 38.7667 -76.6000 63° Northeast 287 330 7,100 -1,440 Descending Potomac TRACON
08:32AM 38.8167 -76.5167 52° Northeast 292 336 5,600 -1,440 Descending Potomac TRACON
08:33AM 38.9000 -76.4833 17° North 285 328 4,300 -840 Descending Potomac TRACON
08:34AM 38.9667 -76.4500 21° North 258 297 4,000 -420 Descending Potomac TRACON
08:35AM 39.0333 -76.4333 11° North 240 276 3,500 -540 Descending Potomac TRACON
08:36AM 39.0833 -76.4000 27° Northeast 233 268 3,000 -360 Descending Potomac TRACON
08:37AM 39.1333 -76.4000 360° North 200 230 2,800 -420 Descending Potomac TRACON
08:38AM 39.1500 -76.4500 293° West 179 206 2,200 -480 Descending Potomac TRACON
08:39AM 39.1667 -76.5000 293° West 166 191 2,000 -300 Descending Potomac TRACON
08:40AM 39.1667 -76.5667 270° West 148 170 1,700 -600 Descending Potomac TRACON
08:41AM 39.1667 -76.6167 270° West 140 161 900 -840 Descending Potomac TRACON
08:43AM 39.1667 -76.6667 282° West  Level FlightAware Approximate
08:50AM 39.1754 -76.6683 282° West  Level Estimated